Time;durP1;ratioP1;P1;durP2;ratioP2;P2;SDS_P1;SDS_P2;PMS_P1;PMS_P2;Temp;Humidity;BMP_temperature;BMP_pressure;BME280_temperature;BME280_humidity;BME280_pressure;Samples;Min_cycle;Max_cycle;Signal;HPM_P1;HPM_P2
2022/07/30 00:00:45;;;;;;;12.30;11.15;;;;;;;23.26;40.12;100450.56;5092171;28;20038;-76
2022/07/30 00:03:10;;;;;;;11.50;10.50;;;;;;;23.07;41.06;100461.56;5093327;28;20031;-76
2022/07/30 00:05:36;;;;;;;12.27;10.50;;;;;;;23.05;40.65;100467.03;5091966;28;20054;-75
2022/07/30 00:08:01;;;;;;;10.93;10.15;;;;;;;22.99;41.41;100471.94;5091907;28;20552;-75
2022/07/30 00:10:27;;;;;;;11.88;10.63;;;;;;;22.91;41.31;100475.03;5091874;28;20097;-75
2022/07/30 00:12:52;;;;;;;12.13;11.05;;;;;;;22.89;41.36;100474.25;5091340;28;20114;-76
2022/07/30 00:15:17;;;;;;;10.65;9.95;;;;;;;22.92;41.49;100456.13;5090031;28;20075;-75
2022/07/30 00:17:43;;;;;;;12.25;11.05;;;;;;;22.94;41.61;100461.41;5091698;28;20039;-76
2022/07/30 00:20:09;;;;;;;14.57;9.45;;;;;;;22.84;43.42;100457.50;5091728;28;20071;-75
2022/07/30 00:22:34;;;;;;;9.80;9.10;;;;;;;22.63;43.77;100459.63;5091127;28;20043;-75
2022/07/30 00:24:59;;;;;;;9.70;9.00;;;;;;;22.56;43.79;100474.38;5091475;28;20164;-75
2022/07/30 00:27:25;;;;;;;10.18;9.27;;;;;;;22.54;43.73;100471.78;5091710;28;20085;-75
2022/07/30 00:29:50;;;;;;;10.70;8.75;;;;;;;22.53;44.96;100464.66;5091609;28;20093;-76
2022/07/30 00:32:15;;;;;;;8.73;7.88;;;;;;;22.44;45.21;100467.88;5069297;28;20043;-75
2022/07/30 00:34:41;;;;;;;9.40;8.60;;;;;;;22.47;44.94;100462.31;5073312;28;20469;-76
2022/07/30 00:37:06;;;;;;;8.85;7.97;;;;;;;22.45;45.02;100461.53;5091609;28;20050;-75
2022/07/30 00:39:31;;;;;;;9.23;8.45;;;;;;;22.50;44.60;100454.06;5073285;28;20232;-75
2022/07/30 00:41:59;;;;;;;9.38;8.52;;;;;;;22.54;44.58;100455.66;5090508;28;20082;-75
2022/07/30 00:44:25;;;;;;;8.80;8.10;;;;;;;22.53;44.93;100457.47;5067940;28;20032;-75
2022/07/30 00:46:51;;;;;;;9.38;8.52;;;;;;;22.48;44.54;100456.00;5092945;28;20032;-75
2022/07/30 00:49:17;;;;;;;9.05;8.13;;;;;;;22.45;44.94;100453.47;5091399;28;20028;-75
2022/07/30 00:51:42;;;;;;;10.10;9.27;;;;;;;22.51;44.99;100462.06;5090792;28;20028;-75
2022/07/30 00:54:07;;;;;;;9.63;8.70;;;;;;;22.57;44.65;100454.59;5072844;28;20406;-75
2022/07/30 00:56:32;;;;;;;10.10;9.30;;;;;;;22.56;44.72;100447.47;5073184;28;20035;-75
2022/07/30 00:58:58;;;;;;;8.85;7.95;;;;;;;22.53;44.78;100456.56;5091207;28;20043;-76
2022/07/30 01:01:23;;;;;;;11.07;8.55;;;;;;;22.52;44.52;100452.16;5072549;28;20048;-76
2022/07/30 01:03:48;;;;;;;9.15;8.45;;;;;;;22.51;44.76;100450.44;5094669;28;20040;-75
2022/07/30 01:06:14;;;;;;;9.43;8.75;;;;;;;22.46;44.09;100456.06;5091124;28;20089;-75
2022/07/30 01:08:41;;;;;;;15.85;8.98;;;;;;;22.34;45.50;100450.53;5091175;28;20035;-75
2022/07/30 01:11:07;;;;;;;9.23;8.48;;;;;;;22.30;45.27;100444.47;5090471;28;20063;-75
2022/07/30 01:13:32;;;;;;;9.15;8.18;;;;;;;22.34;45.18;100439.78;5090932;28;20079;-75
2022/07/30 01:15:58;;;;;;;8.90;8.20;;;;;;;22.28;45.21;100440.97;5072998;28;20406;-75
2022/07/30 01:19:47;;;;;;;9.32;8.57;;;;;;;22.22;45.13;100434.13;5090102;28;20572;-75
2022/07/30 01:21:14;;;;;;;10.73;9.70;;;;;;;22.24;44.80;100434.94;5071867;28;20562;-75
2022/07/30 01:23:44;;;;;;;9.48;8.82;;;;;;;22.23;45.35;100435.00;5091112;28;20085;-75
2022/07/30 01:26:19;;;;;;;9.30;8.55;;;;;;;22.24;45.40;100436.72;5091099;28;20093;-75
2022/07/30 01:28:48;;;;;;;10.60;9.75;;;;;;;22.25;44.78;100428.59;5072104;28;20543;-75
2022/07/30 01:31:14;;;;;;;9.95;9.15;;;;;;;22.27;44.86;100426.69;5072199;28;20123;-75
2022/07/30 01:33:44;;;;;;;9.15;8.45;;;;;;;22.23;44.44;100430.47;5072580;28;20457;-75
2022/07/30 01:36:13;;;;;;;10.35;9.45;;;;;;;22.22;44.35;100430.59;5072648;28;20055;-75
2022/07/30 01:38:43;;;;;;;10.07;9.30;;;;;;;22.21;44.64;100427.00;5072798;28;20028;-75
2022/07/30 01:41:09;;;;;;;10.75;9.93;;;;;;;22.19;44.12;100423.56;5072134;28;20032;-75
2022/07/30 01:43:36;;;;;;;13.57;9.88;;;;;;;22.15;44.18;100421.94;5074444;28;20442;-75
2022/07/30 01:46:03;;;;;;;9.00;8.30;;;;;;;22.04;45.43;100430.63;5076492;28;20040;-75
2022/07/30 01:48:33;;;;;;;9.73;8.82;;;;;;;21.93;45.65;100426.78;5076355;28;20506;-75
2022/07/30 01:51:02;;;;;;;12.25;9.18;;;;;;;21.76;46.62;100428.56;5075981;28;20051;-75
2022/07/30 01:53:30;;;;;;;9.73;8.88;;;;;;;21.62;47.05;100421.25;5076550;28;20032;-75
2022/07/30 01:55:59;;;;;;;9.68;8.77;;;;;;;21.49;47.70;100430.06;5076219;28;20098;-75
2022/07/30 01:58:28;;;;;;;15.45;8.93;;;;;;;21.33;48.99;100428.16;5076188;28;20057;-75
2022/07/30 02:01:04;;;;;;;9.30;8.50;;;;;;;21.30;48.83;100432.78;5075597;28;20084;-74
2022/07/30 02:03:30;;;;;;;8.57;7.78;;;;;;;21.24;48.90;100428.63;5074561;28;20082;-75
2022/07/30 02:06:01;;;;;;;11.82;8.23;;;;;;;21.23;49.60;100430.44;5076037;28;20024;-74
2022/07/30 02:08:43;;;;;;;9.02;8.23;;;;;;;21.07;50.99;100421.47;5076131;28;20405;-75
2022/07/30 02:11:12;;;;;;;9.70;8.07;;;;;;;20.87;50.86;100427.81;5072984;28;20499;-75
2022/07/30 02:13:49;;;;;;;8.55;7.75;;;;;;;20.90;50.98;100429.47;5075820;28;20097;-74
2022/07/30 02:16:20;;;;;;;8.25;7.65;;;;;;;20.98;50.04;100427.28;5091150;28;20119;-74
2022/07/30 02:19:05;;;;;;;9.10;8.35;;;;;;;20.90;50.96;100440.22;5068517;28;20028;-75
2022/07/30 02:21:36;;;;;;;8.93;8.15;;;;;;;20.75;51.08;100436.47;5090615;28;20043;-74
2022/07/30 02:24:05;;;;;;;7.70;6.53;;;;;;;20.61;51.04;100433.63;5058909;28;20032;-75
2022/07/30 02:26:32;;;;;;;9.43;8.63;;;;;;;20.56;51.98;100436.53;5094119;28;20118;-75
2022/07/30 02:29:01;;;;;;;10.32;9.43;;;;;;;20.62;51.95;100441.59;5084632;28;20028;-75
2022/07/30 02:31:30;;;;;;;9.98;9.00;;;;;;;20.61;54.49;100439.00;5074499;28;20039;-75
2022/07/30 02:33:59;;;;;;;10.27;9.25;;;;;;;20.51;54.44;100450.16;5071623;28;20035;-75
2022/07/30 02:36:26;;;;;;;9.77;9.07;;;;;;;20.54;54.06;100441.97;5075046;28;20035;-75
2022/07/30 02:38:53;;;;;;;9.15;8.23;;;;;;;20.61;53.55;100445.22;5075834;28;20022;-75
2022/07/30 02:41:24;;;;;;;9.50;8.70;;;;;;;20.64;54.01;100449.56;5075045;28;20032;-75
2022/07/30 02:43:52;;;;;;;16.13;8.38;;;;;;;20.63;52.83;100442.47;5088622;28;20085;-75
2022/07/30 02:46:21;;;;;;;10.65;8.75;;;;;;;20.60;52.89;100450.66;5075490;28;20043;-75
2022/07/30 02:49:09;;;;;;;9.10;8.35;;;;;;;20.52;53.04;100446.50;5061769;28;20487;-75
2022/07/30 02:51:37;;;;;;;10.52;9.45;;;;;;;20.44;54.77;100446.00;5074523;28;20040;-75
2022/07/30 02:54:03;;;;;;;10.90;9.80;;;;;;;20.47;54.41;100440.50;5057997;28;20035;-75
2022/07/30 02:56:30;;;;;;;11.18;10.27;;;;;;;20.45;54.61;100439.69;5074664;28;20101;-75
2022/07/30 02:58:57;;;;;;;11.05;10.15;;;;;;;20.40;55.10;100440.88;5075412;28;20032;-74
2022/07/30 03:01:24;;;;;;;11.23;10.07;;;;;;;20.40;55.34;100441.72;5091346;28;20139;-75
2022/07/30 03:03:50;;;;;;;11.25;10.05;;;;;;;20.38;55.79;100435.56;5070066;28;20088;-75
2022/07/30 03:06:17;;;;;;;12.45;11.23;;;;;;;20.38;55.55;100440.06;5074901;28;20035;-74
2022/07/30 03:08:44;;;;;;;12.05;11.07;;;;;;;20.41;55.24;100448.84;5075011;28;20036;-75
2022/07/30 03:11:10;;;;;;;11.70;10.50;;;;;;;20.43;55.02;100452.31;5074419;28;20039;-75
2022/07/30 03:13:38;;;;;;;13.23;10.07;;;;;;;20.39;55.46;100450.72;5074726;28;20414;-75
2022/07/30 03:16:07;;;;;;;9.88;9.07;;;;;;;20.40;55.79;100454.28;5093066;28;20039;-75
2022/07/30 03:18:36;;;;;;;11.52;9.35;;;;;;;20.38;55.23;100451.66;5082871;28;20028;-75
2022/07/30 03:21:03;;;;;;;11.20;10.10;;;;;;;20.35;55.40;100451.81;5074212;28;20031;-74
2022/07/30 03:23:33;;;;;;;11.98;10.73;;;;;;;20.37;55.13;100452.59;5092858;28;20042;-75
2022/07/30 03:26:03;;;;;;;13.63;10.02;;;;;;;20.38;55.29;100451.66;5074743;28;20106;-75
2022/07/30 03:28:31;;;;;;;11.30;10.43;;;;;;;20.39;55.01;100449.88;5092627;28;20121;-75
2022/07/30 03:30:57;;;;;;;10.38;9.50;;;;;;;20.39;55.08;100450.72;5092329;28;20028;-75
2022/07/30 03:33:24;;;;;;;10.98;9.88;;;;;;;20.40;55.01;100451.59;5092407;28;20509;-74
2022/07/30 03:35:50;;;;;;;11.35;9.70;;;;;;;20.40;54.73;100447.09;5073535;28;20043;-75
2022/07/30 03:38:17;;;;;;;11.15;10.10;;;;;;;20.37;54.83;100452.59;5074217;28;20107;-75
2022/07/30 03:40:44;;;;;;;10.23;9.15;;;;;;;20.37;54.90;100452.59;5074360;28;20470;-74
2022/07/30 03:43:11;;;;;;;10.13;9.23;;;;;;;20.36;54.56;100445.53;5056113;28;20032;-75
2022/07/30 03:45:42;;;;;;;10.25;9.15;;;;;;;20.33;54.94;100449.22;5074239;28;20577;-75
2022/07/30 03:48:11;;;;;;;13.73;9.45;;;;;;;20.27;55.24;100448.63;5074231;28;20034;-75
2022/07/30 03:50:40;;;;;;;9.75;9.02;;;;;;;20.18;55.20;100447.25;5086635;28;20036;-75
2022/07/30 03:53:07;;;;;;;10.90;9.35;;;;;;;20.13;55.59;100449.28;5070114;28;20046;-75
2022/07/30 03:55:43;;;;;;;9.52;8.73;;;;;;;20.00;55.86;100449.00;5073980;28;20089;-75
2022/07/30 03:58:40;;;;;;;9.88;8.98;;;;;;;19.98;55.81;100452.69;5089417;28;20486;-74
2022/07/30 04:01:07;;;;;;;9.75;8.77;;;;;;;19.97;56.57;100451.81;5073230;28;20028;-75
2022/07/30 04:03:32;;;;;;;10.10;9.18;;;;;;;20.01;55.83;100461.44;5073632;28;20127;-75
2022/07/30 04:06:02;;;;;;;10.98;9.35;;;;;;;20.05;55.68;100454.16;5073671;28;20127;-75
2022/07/30 04:08:28;;;;;;;10.00;9.07;;;;;;;20.08;55.67;100457.53;5073141;28;20115;-75
2022/07/30 04:10:53;;;;;;;9.82;8.80;;;;;;;20.10;55.31;100460.16;5072823;28;20040;-75
2022/07/30 04:13:38;;;;;;;13.90;9.80;;;;;;;20.10;55.18;100465.50;5090543;28;20109;-75
2022/07/30 04:16:18;;;;;;;9.52;8.63;;;;;;;20.12;55.02;100464.50;5073697;28;20486;-75
2022/07/30 04:18:49;;;;;;;9.48;8.50;;;;;;;20.17;54.49;100466.06;5073444;28;20028;-74
2022/07/30 04:21:16;;;;;;;10.02;8.75;;;;;;;20.18;54.47;100462.47;5087874;28;20101;-75
2022/07/30 04:23:43;;;;;;;9.23;8.25;;;;;;;20.17;54.15;100468.75;5091622;28;20067;-75
2022/07/30 04:26:09;;;;;;;9.18;8.38;;;;;;;20.21;53.90;100473.06;5082399;28;20036;-75
2022/07/30 04:28:35;;;;;;;9.05;8.27;;;;;;;20.19;53.31;100467.75;5073518;28;20039;-75
2022/07/30 04:31:02;;;;;;;8.70;8.10;;;;;;;20.10;53.36;100466.38;5072855;28;20052;-75
2022/07/30 04:33:28;;;;;;;7.97;7.28;;;;;;;20.09;52.62;100467.31;5071214;28;20038;-75
2022/07/30 04:36:07;;;;;;;7.65;7.03;;;;;;;20.00;52.70;100470.41;5073411;28;20024;-75
2022/07/30 04:38:35;;;;;;;8.10;7.45;;;;;;;20.00;52.87;100470.41;5087667;28;20039;-74
2022/07/30 04:41:00;;;;;;;8.60;7.90;;;;;;;20.06;51.94;100479.97;5090644;28;20032;-76
2022/07/30 04:43:30;;;;;;;10.02;6.97;;;;;;;20.11;52.20;100472.59;5072718;28;20110;-75
2022/07/30 04:45:56;;;;;;;8.20;7.40;;;;;;;20.10;51.95;100469.06;5072856;28;20425;-75
2022/07/30 04:48:25;;;;;;;7.30;6.75;;;;;;;20.11;51.48;100468.09;5073236;28;20035;-75
2022/07/30 04:51:17;;;;;;;8.32;7.10;;;;;;;20.07;51.76;100473.69;5073616;28;20458;-74
2022/07/30 04:53:44;;;;;;;9.07;7.70;;;;;;;20.10;51.19;100477.09;5051946;28;20081;-74
2022/07/30 04:56:11;;;;;;;8.23;7.18;;;;;;;20.01;51.69;100469.47;5072351;28;20406;-74
2022/07/30 04:58:40;;;;;;;7.60;6.93;;;;;;;20.07;51.05;100476.38;5072914;28;20032;-74
2022/07/30 05:01:07;;;;;;;11.65;7.60;;;;;;;20.18;50.44;100489.28;5072403;28;20028;-74
2022/07/30 05:03:34;;;;;;;8.90;7.07;;;;;;;20.22;50.10;100475.63;5069124;28;20555;-74
2022/07/30 05:06:00;;;;;;;9.60;7.72;;;;;;;20.28;50.44;100479.88;5091255;28;20085;-74
2022/07/30 05:08:29;;;;;;;11.77;7.95;;;;;;;20.30;50.54;100477.97;5071291;28;20036;-75
2022/07/30 05:10:54;;;;;;;9.70;7.13;;;;;;;20.27;50.67;100483.47;5090205;28;20058;-74
2022/07/30 05:13:21;;;;;;;9.32;7.05;;;;;;;20.26;50.44;100481.75;5072651;28;20465;-74
2022/07/30 05:15:47;;;;;;;8.23;7.43;;;;;;;20.28;50.10;100477.19;5090516;28;20040;-75
2022/07/30 05:18:15;;;;;;;8.05;7.30;;;;;;;20.26;50.87;100479.91;5073910;28;20123;-74
2022/07/30 05:20:42;;;;;;;7.93;7.35;;;;;;;20.28;50.43;100475.38;5077027;28;20117;-75
2022/07/30 05:23:34;;;;;;;8.10;7.40;;;;;;;20.24;50.04;100471.09;5090463;28;20040;-75
2022/07/30 05:26:07;;;;;;;8.30;7.60;;;;;;;20.24;50.01;100472.91;5073370;28;20077;-74
2022/07/30 05:28:40;;;;;;;7.95;7.20;;;;;;;20.23;50.06;100471.16;5075884;28;20407;-75
2022/07/30 05:31:09;;;;;;;8.07;7.47;;;;;;;20.18;50.42;100473.19;5076168;28;20061;-75
2022/07/30 05:33:36;;;;;;;8.13;7.43;;;;;;;20.34;50.02;100472.38;5076628;28;20034;-74
2022/07/30 05:36:02;;;;;;;8.10;7.50;;;;;;;20.34;49.47;100480.44;5076867;28;20032;-74
2022/07/30 05:38:28;;;;;;;8.15;7.45;;;;;;;20.40;49.60;100489.13;5076799;28;20024;-74
2022/07/30 05:41:13;;;;;;;8.00;7.32;;;;;;;20.49;48.65;100484.19;5072880;28;20040;-75
2022/07/30 05:44:14;;;;;;;8.02;7.22;;;;;;;20.40;49.76;100495.34;5012169;28;20050;-75
2022/07/30 05:46:39;;;;;;;8.95;7.15;;;;;;;20.50;48.60;100488.59;5062803;28;20398;-74
2022/07/30 05:49:05;;;;;;;10.73;7.90;;;;;;;20.44;49.41;100491.59;5092995;28;20521;-75
2022/07/30 05:51:31;;;;;;;7.88;6.80;;;;;;;20.48;49.60;100490.47;5092329;28;20036;-74
2022/07/30 05:53:56;;;;;;;11.35;7.60;;;;;;;20.52;48.88;100494.75;5076387;28;20533;-74
2022/07/30 05:56:40;;;;;;;7.93;7.22;;;;;;;20.67;48.40;100495.00;5075623;28;20035;-75
2022/07/30 05:59:12;;;;;;;8.70;7.22;;;;;;;20.77;48.35;100496.28;5059748;28;20084;-75
2022/07/30 06:01:56;;;;;;;8.70;7.30;;;;;;;20.91;48.38;100496.50;5093740;28;20047;-75
2022/07/30 06:07:09;;;;;;;9.30;7.45;;;;;;;20.93;47.94;100499.97;2866402;26;20041;-75
2022/07/30 06:09:35;;;;;;;8.77;7.88;;;;;;;20.92;48.30;100497.34;5026299;28;20052;-75
2022/07/30 06:12:00;;;;;;;10.50;7.18;;;;;;;21.05;47.99;100503.84;5041946;28;20083;-75
2022/07/30 06:14:26;;;;;;;11.95;7.78;;;;;;;21.24;47.50;100493.91;5027416;28;20035;-75
2022/07/30 06:16:52;;;;;;;11.23;8.63;;;;;;;21.27;47.67;100495.56;5024622;28;20033;-75
2022/07/30 06:19:18;;;;;;;8.25;7.45;;;;;;;21.08;47.31;100492.09;5029530;28;20029;-75
2022/07/30 06:21:44;;;;;;;8.05;7.07;;;;;;;21.07;47.71;100493.91;5045794;28;20047;-75
2022/07/30 06:24:11;;;;;;;8.93;7.60;;;;;;;21.09;47.39;100500.06;5029238;28;20025;-75
2022/07/30 06:26:47;;;;;;;8.07;7.38;;;;;;;21.19;47.08;100501.31;5046974;28;20074;-75
2022/07/30 06:29:13;;;;;;;10.40;7.57;;;;;;;21.27;47.14;100502.75;5058116;28;20185;-75
2022/07/30 06:31:39;;;;;;;9.23;8.45;;;;;;;21.26;47.38;100518.00;5042568;28;20404;-75
2022/07/30 06:34:06;;;;;;;10.15;8.40;;;;;;;21.26;47.37;100512.63;5059942;28;20041;-75
2022/07/30 06:36:36;;;;;;;9.05;8.23;;;;;;;21.29;47.01;100511.59;5044119;28;20051;-75
2022/07/30 06:39:07;;;;;;;8.32;7.43;;;;;;;21.42;46.93;100513.59;5019901;28;20033;-75
2022/07/30 06:41:52;;;;;;;9.27;7.72;;;;;;;21.51;46.81;100516.75;5034137;28;20381;-75
2022/07/30 06:44:17;;;;;;;9.25;8.45;;;;;;;21.42;46.76;100520.78;5063946;28;20082;-74
2022/07/30 06:47:01;;;;;;;8.20;7.50;;;;;;;21.29;47.41;100522.34;5048704;28;20074;-75
2022/07/30 06:49:26;;;;;;;10.05;7.47;;;;;;;21.34;47.43;100526.50;5061154;28;20068;-75
2022/07/30 06:51:52;;;;;;;8.48;7.47;;;;;;;21.36;47.20;100540.75;5044249;28;20035;-75
2022/07/30 06:54:17;;;;;;;8.40;7.60;;;;;;;21.36;47.33;100530.00;5063511;28;20422;-75
2022/07/30 06:57:00;;;;;;;11.32;9.68;;;;;;;21.45;47.39;100526.84;5037048;28;20495;-75
2022/07/30 06:59:26;;;;;;;8.68;7.93;;;;;;;21.32;47.38;100531.09;5045465;28;20083;-75
2022/07/30 07:02:00;;;;;;;8.38;7.57;;;;;;;21.41;47.14;100530.66;5061769;28;20509;-75
2022/07/30 07:04:27;;;;;;;8.73;7.95;;;;;;;21.41;47.42;100532.50;5033329;28;20033;-75
2022/07/30 07:06:54;;;;;;;9.13;7.75;;;;;;;21.41;47.57;100533.34;5031388;28;20040;-75
2022/07/30 07:09:27;;;;;;;10.68;8.13;;;;;;;21.51;47.13;100532.88;5043890;28;20095;-75
2022/07/30 07:12:15;;;;;;;9.13;8.25;;;;;;;21.45;47.37;100534.91;5062209;28;20036;-75
2022/07/30 07:14:42;;;;;;;12.93;7.28;;;;;;;21.21;47.78;100541.50;5042553;28;20029;-75
2022/07/30 07:17:07;;;;;;;8.40;7.70;;;;;;;21.28;47.52;100532.22;5060596;28;20039;-75
2022/07/30 07:19:51;;;;;;;11.05;8.73;;;;;;;21.36;47.68;100538.06;5064290;28;20525;-76
2022/07/30 07:22:16;;;;;;;8.45;7.82;;;;;;;21.44;47.50;100537.69;5027128;28;20033;-76
2022/07/30 07:24:43;;;;;;;7.45;6.65;;;;;;;21.46;47.50;100535.81;5045406;28;20031;-76
2022/07/30 07:27:12;;;;;;;9.48;8.43;;;;;;;21.40;47.34;100534.28;5035241;28;20091;-75
2022/07/30 07:29:37;;;;;;;8.48;7.68;;;;;;;21.41;47.53;100541.41;5043771;28;20499;-75
2022/07/30 07:32:02;;;;;;;7.53;6.85;;;;;;;21.47;46.99;100540.22;5027986;28;20052;-76
2022/07/30 07:34:28;;;;;;;7.90;7.10;;;;;;;21.45;47.43;100539.41;5018343;28;20082;-75
2022/07/30 07:36:53;;;;;;;7.85;7.05;;;;;;;21.33;47.68;100543.59;5045859;28;20041;-76
2022/07/30 07:39:19;;;;;;;7.88;7.05;;;;;;;21.33;47.60;100540.91;5045062;28;20029;-75
2022/07/30 07:41:46;;;;;;;8.20;7.38;;;;;;;21.33;47.67;100540.03;5043457;28;20204;-75
2022/07/30 07:44:11;;;;;;;7.72;7.13;;;;;;;21.34;48.04;100542.63;5029534;28;20040;-75
2022/07/30 07:46:37;;;;;;;8.02;7.28;;;;;;;21.37;47.82;100542.47;5025359;28;20077;-75
2022/07/30 07:49:03;;;;;;;7.43;6.55;;;;;;;21.42;47.83;100543.13;5041759;28;20071;-75
2022/07/30 07:51:55;;;;;;;8.25;7.45;;;;;;;21.50;47.57;100547.25;5054445;28;20037;-75
2022/07/30 07:54:21;;;;;;;10.35;7.05;;;;;;;21.37;47.92;100542.47;5039831;28;20056;-75
2022/07/30 07:56:47;;;;;;;7.55;6.85;;;;;;;21.37;47.35;100550.50;5057040;28;20063;-77
2022/07/30 07:59:14;;;;;;;7.28;6.65;;;;;;;21.38;47.66;100555.00;5042527;28;20024;-76
2022/07/30 08:01:40;;;;;;;8.10;7.47;;;;;;;21.39;48.18;100555.84;5058608;28;20450;-75
2022/07/30 08:04:29;;;;;;;11.13;7.13;;;;;;;21.25;48.26;100553.84;5020692;28;20041;-76
2022/07/30 08:07:09;;;;;;;7.35;6.63;;;;;;;21.17;48.36;100554.22;5026519;28;20049;-76
2022/07/30 08:09:53;;;;;;;8.32;6.72;;;;;;;21.13;48.65;100555.31;5058249;28;20143;-76
2022/07/30 08:12:42;;;;;;;10.40;7.47;;;;;;;21.14;48.36;100557.06;5038154;28;20024;-75
2022/07/30 08:15:45;;;;;;;7.95;7.30;;;;;;;21.26;48.22;100566.31;4987367;28;20042;-76
2022/07/30 08:18:29;;;;;;;7.82;7.13;;;;;;;21.29;48.05;100560.78;4993636;28;20118;-76
2022/07/30 08:21:21;;;;;;;11.30;8.27;;;;;;;21.27;47.94;100570.72;5034354;28;20036;-76
2022/07/30 08:23:46;;;;;;;13.73;7.85;;;;;;;21.29;48.44;100576.88;5031911;28;20709;-76
2022/07/30 08:26:12;;;;;;;8.38;7.50;;;;;;;21.43;48.10;100571.75;5048613;28;20040;-75
2022/07/30 08:28:37;;;;;;;9.65;8.05;;;;;;;21.42;48.73;100571.81;5032296;28;20032;-76
2022/07/30 08:31:05;;;;;;;13.90;7.78;;;;;;;21.59;47.92;100570.97;5033169;28;20079;-76
2022/07/30 08:33:31;;;;;;;8.93;7.18;;;;;;;21.67;47.75;100566.06;5058467;28;20049;-76
2022/07/30 08:35:57;;;;;;;8.23;7.47;;;;;;;21.88;47.08;100562.25;5050086;28;20070;-76
2022/07/30 08:38:23;;;;;;;9.45;8.52;;;;;;;21.79;47.13;100561.84;5056960;28;20040;-76
2022/07/30 08:40:48;;;;;;;12.77;7.82;;;;;;;21.94;46.67;100557.50;5055732;28;20044;-76
2022/07/30 08:43:14;;;;;;;8.20;7.50;;;;;;;22.09;46.48;100562.06;5055397;28;20033;-76
2022/07/30 08:45:42;;;;;;;9.13;8.20;;;;;;;22.31;46.21;100561.78;5057224;28;20032;-76
2022/07/30 08:48:25;;;;;;;16.25;8.13;;;;;;;22.54;46.07;100564.09;5037982;28;20134;-76
2022/07/30 08:50:52;;;;;;;9.32;8.63;;;;;;;22.72;45.17;100566.72;5031728;28;20546;-76
2022/07/30 08:53:33;;;;;;;12.82;8.65;;;;;;;22.95;44.77;100573.47;5054159;28;20055;-76
2022/07/30 08:56:00;;;;;;;9.60;7.97;;;;;;;23.08;44.62;100579.94;5058263;28;20041;-75
2022/07/30 08:58:30;;;;;;;9.57;8.32;;;;;;;23.04;44.17;100582.88;5038653;28;20029;-76
2022/07/30 09:00:57;;;;;;;9.32;8.43;;;;;;;23.12;44.30;100581.47;5058537;28;20164;-76
2022/07/30 09:03:22;;;;;;;11.38;8.90;;;;;;;23.15;44.09;100583.13;5060038;28;20154;-76
2022/07/30 09:05:48;;;;;;;9.35;8.02;;;;;;;23.12;43.97;100572.53;5059278;28;20653;-76
2022/07/30 09:08:14;;;;;;;9.55;8.75;;;;;;;23.17;44.46;100571.31;5042865;28;20479;-76
2022/07/30 09:10:41;;;;;;;9.57;7.28;;;;;;;23.25;44.10;100581.63;5045771;28;20040;-76
2022/07/30 09:13:33;;;;;;;9.82;8.50;;;;;;;23.29;43.56;100579.63;5033537;28;20094;-76
2022/07/30 09:16:01;;;;;;;8.57;7.93;;;;;;;23.28;43.16;100581.47;5052626;28;20036;-76
2022/07/30 09:18:33;;;;;;;9.30;8.35;;;;;;;23.33;43.29;100581.19;5040909;28;20511;-76
2022/07/30 09:21:22;;;;;;;12.40;9.32;;;;;;;23.43;43.16;100578.84;5054346;28;20039;-76
2022/07/30 09:24:02;;;;;;;10.00;7.80;;;;;;;23.59;42.96;100575.13;5054715;28;20138;-76
2022/07/30 09:26:59;;;;;;;11.15;10.00;;;;;;;23.58;42.79;100581.50;5046080;28;20491;-75
2022/07/30 09:29:43;;;;;;;;;;;;;;;23.45;43.61;100580.47;5060401;28;20044;-76
2022/07/30 09:32:47;;;;;;;10.27;9.05;;;;;;;23.67;43.03;100576.50;5064944;28;19974;-76
2022/07/30 09:35:34;;;;;;;10.65;9.73;;;;;;;23.87;42.62;100580.72;5043351;28;20123;-76
2022/07/30 09:38:10;;;;;;;10.23;9.43;;;;;;;23.78;42.59;100574.06;5062971;28;20652;-76
2022/07/30 09:41:11;;;;;;;13.50;9.95;;;;;;;23.81;42.61;100572.03;5029351;28;20153;-76
2022/07/30 09:43:51;;;;;;;10.60;9.80;;;;;;;24.11;41.90;100576.53;5026073;28;20044;-76
2022/07/30 09:46:42;;;;;;;11.07;10.27;;;;;;;24.08;41.84;100579.41;5058573;28;20033;-76
2022/07/30 09:49:17;;;;;;;11.32;10.27;;;;;;;24.24;41.63;100574.78;5039297;28;20036;-76
2022/07/30 09:51:43;;;;;;;12.18;11.27;;;;;;;24.66;41.47;100573.06;5036928;28;20032;-76
2022/07/30 09:54:08;;;;;;;15.70;11.32;;;;;;;24.65;40.87;100578.56;5025331;28;20106;-75
2022/07/30 09:56:34;;;;;;;11.63;10.57;;;;;;;24.92;40.99;100573.22;5025657;28;20032;-76
2022/07/30 09:58:59;;;;;;;11.85;10.75;;;;;;;25.01;40.22;100572.59;5032039;28;20037;-76
2022/07/30 10:01:25;;;;;;;11.65;10.52;;;;;;;25.11;40.05;100583.66;5041795;28;20032;-76
2022/07/30 10:04:31;;;;;;;11.40;10.23;;;;;;;25.01;40.36;100575.31;5055785;28;20045;-76
2022/07/30 10:07:17;;;;;;;12.68;11.75;;;;;;;25.36;40.07;100573.00;5035860;28;20025;-76
2022/07/30 10:09:44;;;;;;;11.23;10.38;;;;;;;25.68;39.32;100578.06;5043750;28;20128;-76
2022/07/30 10:12:13;;;;;;;12.93;11.27;;;;;;;25.72;39.13;100582.25;5046295;28;20418;-76
2022/07/30 10:14:45;;;;;;;14.73;13.70;;;;;;;25.01;39.71;100583.41;5047738;28;20032;-76
2022/07/30 10:17:13;;;;;;;12.77;11.97;;;;;;;25.01;40.41;100582.53;5043932;28;20043;-76
2022/07/30 10:19:41;;;;;;;12.10;11.30;;;;;;;25.17;39.84;100583.28;5046187;28;20282;-76
2022/07/30 10:22:35;;;;;;;11.95;11.02;;;;;;;25.32;40.55;100576.88;5055502;28;20044;-76
2022/07/30 10:25:40;;;;;;;12.38;11.32;;;;;;;25.61;39.67;100583.97;5061798;28;20515;-76
2022/07/30 10:28:24;;;;;;;13.57;12.32;;;;;;;25.73;39.22;100585.84;5061863;28;20044;-76
2022/07/30 10:30:52;;;;;;;15.95;11.25;;;;;;;25.88;38.79;100581.22;5065129;28;20051;-76
2022/07/30 10:33:17;;;;;;;15.50;11.30;;;;;;;26.13;38.99;100588.50;5064964;28;20036;-76
2022/07/30 10:35:43;;;;;;;15.35;11.93;;;;;;;26.29;38.19;100577.47;5012968;28;20419;-76
2022/07/30 10:38:11;;;;;;;11.70;10.80;;;;;;;26.35;38.43;100585.13;5056862;28;20043;-76
2022/07/30 10:40:45;;;;;;;13.07;11.95;;;;;;;26.26;38.05;100583.09;5061097;28;20048;-76
2022/07/30 10:43:53;;;;;;;13.18;12.15;;;;;;;26.48;37.92;100591.41;5036079;28;20092;-76
2022/07/30 10:46:34;;;;;;;11.93;10.85;;;;;;;26.56;37.46;100590.88;5064045;28;20037;-76
2022/07/30 10:49:14;;;;;;;12.63;11.73;;;;;;;26.16;37.95;100591.00;5061808;28;20119;-76
2022/07/30 10:51:44;;;;;;;12.93;12.02;;;;;;;26.09;37.74;100593.25;5058149;28;20039;-76
2022/07/30 10:54:34;;;;;;;13.55;12.63;;;;;;;26.09;38.16;100592.41;5061496;28;20115;-76
2022/07/30 10:57:05;;;;;;;12.75;11.85;;;;;;;26.41;37.06;100582.88;5061683;28;20037;-76
2022/07/30 10:59:57;;;;;;;13.80;12.53;;;;;;;26.70;37.14;100585.34;5061638;28;20643;-76
2022/07/30 11:02:24;;;;;;;13.75;12.10;;;;;;;26.50;37.51;100577.78;5064403;28;20721;-76
2022/07/30 11:05:21;;;;;;;13.18;12.18;;;;;;;26.65;36.92;100592.94;5028699;28;20032;-76
2022/07/30 11:07:47;;;;;;;14.10;12.57;;;;;;;26.55;37.70;100583.75;5056297;28;20033;-77
2022/07/30 11:10:33;;;;;;;12.55;11.70;;;;;;;26.60;36.84;100582.44;5055628;28;20379;-77
2022/07/30 11:12:58;;;;;;;14.35;13.25;;;;;;;26.58;36.74;100581.69;5061248;28;20531;-76
2022/07/30 11:15:53;;;;;;;14.13;12.98;;;;;;;26.14;37.62;100584.81;5062248;28;20051;-76
2022/07/30 11:18:19;;;;;;;14.52;13.55;;;;;;;26.06;38.00;100581.78;5063862;28;20037;-76
2022/07/30 11:21:15;;;;;;;14.02;12.82;;;;;;;26.25;37.57;100579.50;5058726;28;20034;-76
2022/07/30 11:23:41;;;;;;;15.20;14.20;;;;;;;26.39;37.19;100571.28;5042202;28;20112;-76
2022/07/30 11:26:07;;;;;;;14.57;13.40;;;;;;;26.24;37.65;100575.09;5062553;28;20411;-77
2022/07/30 11:28:44;;;;;;;14.32;13.43;;;;;;;26.42;37.17;100576.47;5055680;28;20028;-76
2022/07/30 11:31:31;;;;;;;14.20;13.20;;;;;;;26.43;36.99;100582.75;5056113;28;20045;-76
2022/07/30 11:34:16;;;;;;;19.02;14.40;;;;;;;26.54;37.37;100582.91;5057568;28;20403;-76
2022/07/30 11:37:00;;;;;;;14.52;13.48;;;;;;;26.42;37.65;100575.63;5031367;28;20026;-76
2022/07/30 11:39:53;;;;;;;13.77;12.60;;;;;;;26.78;36.83;100568.56;5059721;28;20361;-77
2022/07/30 11:42:26;;;;;;;15.13;13.98;;;;;;;27.02;36.62;100576.69;5062908;28;20028;-76